createdAt,value
2017-08-20T00:01:45.123Z,93.50
2017-08-20T00:04:13.390Z,93.40
2017-08-20T00:06:40.883Z,93.40
2017-08-20T00:09:08.400Z,93.50
2017-08-20T00:11:35.955Z,93.50
2017-08-20T00:14:03.524Z,93.50
2017-08-20T00:16:31.767Z,93.50
2017-08-20T00:18:59.309Z,93.50
2017-08-20T00:21:26.796Z,93.40
2017-08-20T00:23:54.377Z,93.40
2017-08-20T00:26:22.650Z,93.20
2017-08-20T00:28:50.883Z,93.30
2017-08-20T00:31:18.377Z,93.20
2017-08-20T00:33:45.847Z,93.30
2017-08-20T00:36:14.089Z,93.40
2017-08-20T00:38:41.576Z,93.40
2017-08-20T00:41:09.857Z,93.20
2017-08-20T00:43:38.115Z,93.10
2017-08-20T00:46:05.591Z,93.10
2017-08-20T00:48:33.814Z,93.50
2017-08-20T00:51:01.278Z,93.20
2017-08-20T00:53:28.758Z,93.20
2017-08-20T00:55:56.220Z,93.30
2017-08-20T00:58:23.683Z,93.10
2017-08-20T01:00:51.914Z,93.30
2017-08-20T01:03:19.474Z,92.90
2017-08-20T01:05:46.947Z,92.90
2017-08-20T01:08:14.422Z,93.00
2017-08-20T01:10:41.972Z,93.00
2017-08-20T01:13:09.426Z,93.00
2017-08-20T01:15:37.556Z,93.60
2017-08-20T01:18:05.040Z,93.30
2017-08-20T01:20:32.510Z,93.30
2017-08-20T01:22:59.980Z,93.40
2017-08-20T01:25:27.544Z,93.30
2017-08-20T01:27:55.819Z,93.20
2017-08-20T01:30:24.082Z,93.30
2017-08-20T01:32:51.551Z,93.30
2017-08-20T01:35:19.778Z,93.10
2017-08-20T01:37:47.285Z,93.10
2017-08-20T01:40:14.745Z,92.90
2017-08-20T01:42:43.008Z,92.70
2017-08-20T01:45:10.480Z,92.70
2017-08-20T01:47:38.694Z,92.70
2017-08-20T01:50:06.200Z,92.70
2017-08-20T01:52:33.768Z,92.70
2017-08-20T01:55:01.996Z,92.30
2017-08-20T01:57:29.487Z,92.30
2017-08-20T01:59:56.951Z,92.50
2017-08-20T02:02:25.226Z,92.50
2017-08-20T02:04:53.452Z,92.70
2017-08-20T02:07:20.954Z,92.50
2017-08-20T02:09:48.414Z,92.40
2017-08-20T02:12:16.688Z,92.50
2017-08-20T02:14:44.956Z,92.20
2017-08-20T02:17:12.439Z,92.20
2017-08-20T02:19:39.966Z,92.00
2017-08-20T02:22:07.440Z,92.20
2017-08-20T02:24:35.700Z,92.20
2017-08-20T02:27:03.259Z,92.20
2017-08-20T02:29:30.727Z,92.20
2017-08-20T02:31:58.991Z,92.30
2017-08-20T02:34:27.239Z,92.50
2017-08-20T02:36:54.732Z,92.60
2017-08-20T02:39:22.968Z,92.60
2017-08-20T02:41:50.440Z,92.60
2017-08-20T02:44:17.923Z,92.50
2017-08-20T02:46:46.169Z,92.70
2017-08-20T02:49:13.630Z,92.70
2017-08-20T02:51:41.109Z,92.70
2017-08-20T02:54:09.383Z,92.70
2017-08-20T02:56:38.446Z,92.80
2017-08-20T02:59:05.893Z,92.80
2017-08-20T03:01:33.397Z,92.60
2017-08-20T03:04:01.644Z,92.70
2017-08-20T03:06:29.217Z,92.60
2017-08-20T03:08:56.688Z,92.50
2017-08-20T03:11:24.231Z,92.40
2017-08-20T03:13:51.703Z,92.50
2017-08-20T03:16:19.979Z,92.40
2017-08-20T03:18:48.944Z,92.20
2017-08-20T03:21:16.407Z,92.20
2017-08-20T03:23:43.971Z,92.10
2017-08-20T03:26:11.436Z,92.20
2017-08-20T03:28:40.460Z,92.20
2017-08-20T03:31:07.916Z,92.30
2017-08-20T03:33:35.381Z,92.30
2017-08-20T03:36:02.855Z,92.30
2017-08-20T03:38:30.349Z,92.30
2017-08-20T03:40:58.735Z,92.40
2017-08-20T03:43:26.972Z,92.60
2017-08-20T03:45:54.470Z,92.50
2017-08-20T03:48:22.795Z,92.60
2017-08-20T03:50:50.303Z,92.60
2017-08-20T03:53:18.527Z,92.50
2017-08-20T03:55:46.221Z,92.50
2017-08-20T03:58:13.690Z,92.30
2017-08-20T04:00:41.148Z,92.20
2017-08-20T04:03:08.602Z,92.50
2017-08-20T04:05:36.171Z,92.10
2017-08-20T04:08:04.435Z,91.70
2017-08-20T04:10:31.999Z,91.70
2017-08-20T04:12:59.475Z,91.60
2017-08-20T04:15:27.692Z,91.10
2017-08-20T04:17:55.183Z,91.00
2017-08-20T04:20:22.750Z,90.90
2017-08-20T04:22:50.307Z,90.80
2017-08-20T04:25:17.871Z,90.70
2017-08-20T04:27:46.109Z,90.70
2017-08-20T04:30:13.701Z,90.60
2017-08-20T04:32:41.931Z,90.80
2017-08-20T04:35:09.431Z,90.50
2017-08-20T04:37:37.812Z,91.00
2017-08-20T04:40:06.095Z,90.60
2017-08-20T04:42:33.640Z,90.60
2017-08-20T04:45:01.218Z,90.70
2017-08-20T04:47:29.481Z,91.20
2017-08-20T04:49:58.659Z,90.70
2017-08-20T04:52:26.155Z,90.80
2017-08-20T04:54:54.397Z,90.70
2017-08-20T04:57:21.862Z,90.70
2017-08-20T04:59:49.540Z,90.40
2017-08-20T05:02:17.754Z,90.60
2017-08-20T05:04:46.076Z,90.60
2017-08-20T05:07:13.640Z,90.50
2017-08-20T05:09:41.868Z,90.90
2017-08-20T05:12:09.339Z,90.60
2017-08-20T05:14:36.992Z,90.50
2017-08-20T05:17:04.435Z,90.20
2017-08-20T05:19:31.906Z,90.40
2017-08-20T05:21:59.384Z,90.10
2017-08-20T05:24:26.839Z,90.20
2017-08-20T05:26:54.462Z,90.10
2017-08-20T05:29:21.947Z,90.00
2017-08-20T05:31:49.433Z,89.90
2017-08-20T05:34:17.192Z,90.00
2017-08-20T05:36:45.423Z,89.70
2017-08-20T05:39:12.918Z,89.70
2017-08-20T05:41:40.415Z,89.50
2017-08-20T05:44:07.937Z,89.00
2017-08-20T05:46:35.403Z,88.70
2017-08-20T05:49:03.680Z,88.00
2017-08-20T05:51:31.945Z,87.90
2017-08-20T05:53:59.398Z,87.90
2017-08-20T05:56:26.881Z,88.20
2017-08-20T05:58:54.418Z,88.20
2017-08-20T06:01:21.862Z,87.40
2017-08-20T06:03:49.339Z,87.70
2017-08-20T06:06:17.560Z,88.20
2017-08-20T06:08:45.056Z,88.20
2017-08-20T06:11:12.615Z,88.00
2017-08-20T06:13:40.102Z,88.60
2017-08-20T06:16:07.642Z,87.10
2017-08-20T06:18:35.918Z,82.10
2017-08-20T06:21:04.163Z,78.80
2017-08-20T06:23:31.643Z,78.70
2017-08-20T06:25:59.120Z,77.10
2017-08-20T06:28:27.349Z,75.60
2017-08-20T06:30:54.806Z,75.60
2017-08-20T06:33:22.340Z,75.80
2017-08-20T06:35:49.835Z,76.40
2017-08-20T06:38:17.412Z,77.30
2017-08-20T06:40:45.682Z,79.60
2017-08-20T06:43:13.938Z,80.50
2017-08-20T06:45:41.524Z,79.80
2017-08-20T06:48:09.867Z,81.00
2017-08-20T06:50:37.327Z,80.90
2017-08-20T06:53:04.816Z,80.60
2017-08-20T06:55:32.301Z,80.40
2017-08-20T06:57:59.846Z,78.10
2017-08-20T07:00:28.079Z,77.20
2017-08-20T07:02:55.677Z,77.20
2017-08-20T07:05:24.011Z,77.50
2017-08-20T07:07:51.520Z,77.50
2017-08-20T07:10:18.998Z,76.90
2017-08-20T07:12:47.461Z,76.20
2017-08-20T07:15:14.929Z,76.20
2017-08-20T07:17:42.401Z,75.30
2017-08-20T07:20:09.899Z,75.30
2017-08-20T07:22:38.387Z,75.80
2017-08-20T07:25:06.644Z,78.40
2017-08-20T07:27:34.102Z,78.30
2017-08-20T07:30:01.576Z,79.80
2017-08-20T07:32:29.812Z,80.20
2017-08-20T07:34:57.302Z,79.40
2017-08-20T07:37:24.775Z,79.10
2017-08-20T07:39:53.058Z,76.20
2017-08-20T07:42:22.298Z,76.20
2017-08-20T07:44:49.851Z,77.80
2017-08-20T07:47:17.312Z,78.00
2017-08-20T07:49:44.817Z,77.60
2017-08-20T07:52:13.073Z,76.60
2017-08-20T07:54:40.535Z,76.60
2017-08-20T07:57:08.002Z,76.10
2017-08-20T07:59:36.267Z,74.90
2017-08-20T08:02:03.748Z,74.90
2017-08-20T08:04:31.328Z,74.10
2017-08-20T08:06:58.796Z,72.60
2017-08-20T08:09:26.263Z,74.50
2017-08-20T08:11:54.055Z,72.70
2017-08-20T08:14:21.526Z,71.50
2017-08-20T08:16:49.830Z,74.50
2017-08-20T08:19:17.327Z,74.30
2017-08-20T08:21:44.821Z,73.90
2017-08-20T08:24:13.051Z,70.90
2017-08-20T08:26:40.539Z,70.80
2017-08-20T08:29:08.015Z,69.70
2017-08-20T08:31:36.254Z,68.20
2017-08-20T08:34:03.884Z,68.20
2017-08-20T08:36:31.418Z,69.30
2017-08-20T08:38:58.899Z,68.70
2017-08-20T08:41:26.419Z,70.50
2017-08-20T08:43:54.658Z,70.30
2017-08-20T08:46:22.439Z,70.20
2017-08-20T08:48:49.902Z,70.80
2017-08-20T08:51:18.263Z,70.00
2017-08-20T08:53:46.249Z,67.50
2017-08-20T08:56:13.699Z,66.10
2017-08-20T08:58:41.241Z,66.60
2017-08-20T09:01:08.875Z,68.20
2017-08-20T09:03:37.991Z,67.30
2017-08-20T09:06:05.507Z,66.60
2017-08-20T09:08:33.039Z,66.70
2017-08-20T09:11:01.311Z,65.60
2017-08-20T09:13:29.619Z,66.60
2017-08-20T09:15:57.135Z,66.20
2017-08-20T09:18:24.841Z,65.30
2017-08-20T09:20:52.416Z,66.10
2017-08-20T09:23:19.923Z,65.60
2017-08-20T09:25:49.012Z,66.90
2017-08-20T09:28:16.637Z,66.30
2017-08-20T09:30:44.144Z,66.20
2017-08-20T09:33:12.402Z,65.10
2017-08-20T09:35:39.867Z,64.80
2017-08-20T09:38:07.424Z,63.90
2017-08-20T09:40:34.929Z,64.70
2017-08-20T09:43:03.572Z,65.40
2017-08-20T09:45:31.020Z,63.90
2017-08-20T09:47:58.570Z,61.40
2017-08-20T09:50:26.155Z,60.60
2017-08-20T09:52:54.399Z,61.60
2017-08-20T09:55:21.868Z,61.60
2017-08-20T09:57:49.361Z,62.10
2017-08-20T10:00:16.839Z,62.30
2017-08-20T10:02:44.311Z,61.60
2017-08-20T10:05:11.807Z,62.60
2017-08-20T10:07:39.271Z,62.40
2017-08-20T10:10:07.543Z,61.90
2017-08-20T10:12:35.791Z,61.80
2017-08-20T10:15:03.271Z,61.80
2017-08-20T10:17:31.539Z,62.90
2017-08-20T10:19:59.029Z,62.90
2017-08-20T10:22:26.708Z,62.80
2017-08-20T10:24:54.172Z,62.10
2017-08-20T10:27:21.794Z,61.80
2017-08-20T10:29:49.266Z,62.70
2017-08-20T10:32:16.727Z,62.30
2017-08-20T10:34:44.199Z,61.70
2017-08-20T10:37:11.671Z,61.50
2017-08-20T10:39:39.585Z,59.10
2017-08-20T10:42:07.075Z,60.40
2017-08-20T10:44:34.571Z,60.90
2017-08-20T10:47:02.149Z,60.80
2017-08-20T10:49:30.280Z,58.00
2017-08-20T10:51:57.791Z,57.80
2017-08-20T10:54:25.536Z,60.30
2017-08-20T10:56:55.014Z,60.80
2017-08-20T10:59:24.529Z,59.70
2017-08-20T11:01:52.016Z,60.00
2017-08-20T11:04:20.409Z,59.50
2017-08-20T11:06:47.904Z,58.10
2017-08-20T11:09:15.363Z,57.90
2017-08-20T11:11:42.831Z,58.00
2017-08-20T11:14:10.775Z,58.40
2017-08-20T11:16:38.279Z,57.00
2017-08-20T11:19:07.172Z,56.60
2017-08-20T11:21:35.450Z,57.80
2017-08-20T11:24:03.905Z,57.80
2017-08-20T11:26:31.386Z,57.20
2017-08-20T11:28:59.708Z,58.80
2017-08-20T11:31:27.273Z,59.20
2017-08-20T11:33:54.739Z,56.90
2017-08-20T11:36:22.212Z,57.40
2017-08-20T11:38:49.831Z,57.10
2017-08-20T11:41:17.291Z,56.50
2017-08-20T11:43:44.952Z,57.20
2017-08-20T11:46:12.463Z,58.30
2017-08-20T11:48:40.035Z,57.60
2017-08-20T11:51:08.447Z,59.00
2017-08-20T11:53:35.937Z,58.60
2017-08-20T11:56:03.407Z,59.20
2017-08-20T11:58:30.896Z,57.60
2017-08-20T12:00:59.149Z,58.20
2017-08-20T12:03:26.724Z,58.20
2017-08-20T12:05:54.270Z,59.70
2017-08-20T12:08:22.500Z,58.20
2017-08-20T12:10:50.000Z,58.20
2017-08-20T12:13:21.918Z,57.10
2017-08-20T12:15:49.415Z,57.10
2017-08-20T12:18:17.640Z,58.50
2017-08-20T12:20:45.147Z,58.40
2017-08-20T12:23:13.387Z,59.10
2017-08-20T12:25:40.874Z,58.50
2017-08-20T12:28:08.343Z,59.30
2017-08-20T12:30:36.612Z,58.20
2017-08-20T12:33:04.076Z,58.20
2017-08-20T12:35:32.339Z,58.20
2017-08-20T12:37:59.868Z,58.10
2017-08-20T12:40:27.366Z,57.90
2017-08-20T12:42:55.633Z,58.40
2017-08-20T12:45:24.312Z,58.40
2017-08-20T12:47:52.079Z,57.10
2017-08-20T12:50:19.544Z,58.20
2017-08-20T12:52:47.782Z,58.20
2017-08-20T12:55:15.595Z,58.20
2017-08-20T12:57:43.858Z,58.90
2017-08-20T13:00:12.111Z,59.50
2017-08-20T13:02:40.463Z,59.50
2017-08-20T13:05:08.449Z,59.50
2017-08-20T13:07:35.959Z,59.90
2017-08-20T13:10:03.423Z,60.00
2017-08-20T13:12:30.896Z,58.20
2017-08-20T13:14:58.368Z,58.00
2017-08-20T13:17:25.846Z,58.20
2017-08-20T13:19:53.411Z,58.20
2017-08-20T13:22:20.971Z,57.30
2017-08-20T13:24:48.440Z,56.40
2017-08-20T13:27:19.272Z,56.40
2017-08-20T13:32:21.072Z,58.00
2017-08-20T13:34:48.665Z,59.10
2017-08-20T13:37:16.166Z,57.80
2017-08-20T13:39:43.784Z,57.40
2017-08-20T13:42:11.248Z,57.40
2017-08-20T13:44:38.711Z,57.40
2017-08-20T13:47:06.288Z,57.70
2017-08-20T13:49:33.771Z,58.00
2017-08-20T13:52:01.302Z,56.30
2017-08-20T13:54:28.770Z,57.10
2017-08-20T13:56:57.019Z,57.00
2017-08-20T13:59:24.515Z,56.40
2017-08-20T14:01:52.070Z,57.10
2017-08-20T14:04:20.630Z,57.10
2017-08-20T14:06:48.202Z,58.50
2017-08-20T14:09:16.474Z,57.40
2017-08-20T14:11:44.041Z,57.40
2017-08-20T14:14:12.300Z,56.80
2017-08-20T14:16:39.774Z,56.80
2017-08-20T14:19:08.032Z,56.10
2017-08-20T14:21:35.554Z,56.00
2017-08-20T14:24:03.035Z,55.50
2017-08-20T14:26:30.499Z,55.70
2017-08-20T14:28:57.964Z,56.10
2017-08-20T14:31:25.447Z,55.80
2017-08-20T14:33:52.898Z,56.60
2017-08-20T14:36:20.364Z,55.70
2017-08-20T14:38:48.822Z,56.90
2017-08-20T14:41:17.047Z,56.50
2017-08-20T14:43:44.514Z,56.50
2017-08-20T14:46:18.817Z,56.90
2017-08-20T14:48:46.444Z,57.30
2017-08-20T14:51:14.105Z,57.60
2017-08-20T14:53:41.628Z,57.60
2017-08-20T14:56:09.100Z,57.40
2017-08-20T14:58:36.660Z,57.10
2017-08-20T15:01:04.900Z,58.50
2017-08-20T15:03:32.399Z,58.40
2017-08-20T15:05:59.960Z,59.60
2017-08-20T15:08:28.228Z,58.90
2017-08-20T15:10:56.460Z,58.90
2017-08-20T15:13:23.925Z,58.90
2017-08-20T15:15:51.396Z,58.40
2017-08-20T15:18:18.967Z,58.20
2017-08-20T15:20:46.432Z,57.20
2017-08-20T15:23:13.914Z,57.90
2017-08-20T15:25:41.434Z,57.20
2017-08-20T15:28:09.000Z,57.00
2017-08-20T15:30:36.556Z,57.10
2017-08-20T15:33:04.328Z,57.60
2017-08-20T15:35:32.612Z,58.20
2017-08-20T15:38:00.485Z,57.80
2017-08-20T15:40:30.762Z,57.10
2017-08-20T15:42:58.674Z,57.10
2017-08-20T15:45:26.182Z,57.50
2017-08-20T15:47:54.117Z,58.80
2017-08-20T15:50:21.840Z,59.70
2017-08-20T15:52:50.034Z,59.40
2017-08-20T15:55:17.524Z,59.30
2017-08-20T15:57:45.032Z,58.70
2017-08-20T16:00:13.267Z,58.80
2017-08-20T16:02:40.777Z,58.60
2017-08-20T16:05:08.318Z,58.20
2017-08-20T16:07:35.777Z,58.30
2017-08-20T16:10:03.708Z,59.30
2017-08-20T16:12:31.175Z,60.20
2017-08-20T16:14:58.636Z,60.00
2017-08-20T16:17:26.123Z,59.40
2017-08-20T16:19:53.637Z,59.20
2017-08-20T16:22:21.125Z,59.30
2017-08-20T16:24:48.615Z,59.20
2017-08-20T16:27:16.091Z,60.00
2017-08-20T16:29:43.559Z,59.10
2017-08-20T16:32:11.014Z,59.50
2017-08-20T16:34:38.512Z,59.30
2017-08-20T16:37:05.971Z,59.70
2017-08-20T16:39:33.523Z,59.80
2017-08-20T16:42:01.087Z,59.40
2017-08-20T16:44:28.572Z,59.90
2017-08-20T16:46:56.101Z,59.70
2017-08-20T16:49:23.651Z,59.40
2017-08-20T16:51:51.121Z,59.80
2017-08-20T16:54:18.594Z,60.00
2017-08-20T16:56:46.124Z,61.20
2017-08-20T16:59:13.595Z,60.50
2017-08-20T17:01:41.839Z,61.00
2017-08-20T17:04:09.328Z,60.90
2017-08-20T17:06:37.596Z,61.40
2017-08-20T17:09:05.075Z,61.30
2017-08-20T17:11:32.528Z,62.40
2017-08-20T17:13:59.991Z,61.80
2017-08-20T17:16:27.459Z,61.10
2017-08-20T17:18:54.964Z,61.30
2017-08-20T17:21:22.415Z,61.60
2017-08-20T17:23:49.918Z,62.00
2017-08-20T17:26:17.455Z,62.20
2017-08-20T17:28:44.918Z,62.70
2017-08-20T17:31:13.151Z,63.40
2017-08-20T17:33:40.624Z,63.30
2017-08-20T17:36:08.093Z,62.60
2017-08-20T17:38:35.559Z,62.20
2017-08-20T17:41:03.783Z,64.80
2017-08-20T17:43:31.243Z,64.80
2017-08-20T17:45:58.749Z,64.60
2017-08-20T17:48:26.995Z,63.30
2017-08-20T17:50:54.470Z,63.30
2017-08-20T17:53:21.947Z,64.40
2017-08-20T17:55:50.204Z,65.70
2017-08-20T17:58:17.669Z,65.70
2017-08-20T18:00:45.419Z,65.80
2017-08-20T18:03:12.880Z,65.80
2017-08-20T18:05:40.349Z,66.50
2017-08-20T18:08:08.819Z,67.00
2017-08-20T18:10:36.376Z,67.00
2017-08-20T18:13:04.443Z,66.60
2017-08-20T18:15:32.006Z,66.60
2017-08-20T18:17:59.560Z,67.10
2017-08-20T18:20:27.027Z,67.40
2017-08-20T18:22:55.319Z,68.00
2017-08-20T18:25:22.795Z,67.50
2017-08-20T18:27:50.246Z,67.60
2017-08-20T18:30:17.794Z,68.70
2017-08-20T18:32:45.412Z,68.70
2017-08-20T18:35:12.879Z,69.30
2017-08-20T18:37:40.429Z,70.10
2017-08-20T18:40:07.944Z,70.50
2017-08-20T18:42:36.438Z,70.60
2017-08-20T18:45:03.961Z,70.80
2017-08-20T18:47:31.875Z,71.30
2017-08-20T18:49:59.353Z,71.40
2017-08-20T18:52:26.832Z,71.70
2017-08-20T18:54:55.057Z,73.30
2017-08-20T18:57:22.592Z,72.50
2017-08-20T18:59:51.015Z,72.70
2017-08-20T19:02:18.502Z,72.80
2017-08-20T19:04:46.857Z,73.30
2017-08-20T19:07:14.466Z,73.20
2017-08-20T19:09:41.960Z,72.80
2017-08-20T19:12:09.496Z,72.70
2017-08-20T19:14:37.041Z,72.60
2017-08-20T19:17:05.440Z,72.60
2017-08-20T19:19:34.198Z,72.70
2017-08-20T19:22:01.716Z,73.70
2017-08-20T19:24:29.270Z,73.60
2017-08-20T19:26:57.603Z,73.20
2017-08-20T19:29:25.133Z,73.40
2017-08-20T19:31:53.421Z,74.10
2017-08-20T19:34:21.771Z,74.10
2017-08-20T19:36:49.240Z,74.60
2017-08-20T19:39:17.545Z,75.30
2017-08-20T19:41:45.061Z,75.30
2017-08-20T19:44:12.531Z,75.50
2017-08-20T19:46:40.780Z,76.60
2017-08-20T19:49:08.364Z,76.60
2017-08-20T19:51:36.595Z,77.10
2017-08-20T19:54:04.099Z,77.10
2017-08-20T19:56:32.333Z,76.90
2017-08-20T19:59:00.151Z,76.90
2017-08-20T20:01:27.803Z,76.90
2017-08-20T20:03:56.067Z,76.60
2017-08-20T20:06:23.630Z,76.50
2017-08-20T20:08:52.146Z,77.20
2017-08-20T20:11:19.845Z,77.00
2017-08-20T20:13:48.049Z,77.60
2017-08-20T20:16:16.279Z,77.50
2017-08-20T20:18:43.741Z,77.50
2017-08-20T20:21:11.215Z,77.00
2017-08-20T20:23:38.671Z,76.70
2017-08-20T20:26:06.144Z,76.70
2017-08-20T20:28:34.415Z,77.20
2017-08-20T20:31:01.908Z,77.00
2017-08-20T20:33:29.444Z,76.50
2017-08-20T20:35:56.982Z,76.80
2017-08-20T20:38:24.900Z,76.90
2017-08-20T20:40:52.475Z,76.50
2017-08-20T20:43:19.968Z,76.00
2017-08-20T20:45:47.432Z,76.10
2017-08-20T20:48:14.996Z,76.30
2017-08-20T20:50:42.548Z,76.10
2017-08-20T20:53:10.017Z,76.10
2017-08-20T20:55:38.255Z,76.20
2017-08-20T20:58:05.861Z,76.20
2017-08-20T21:00:34.166Z,75.50
2017-08-20T21:03:01.653Z,75.50
2017-08-20T21:05:29.230Z,75.90
2017-08-20T21:07:56.692Z,75.80
2017-08-20T21:10:24.963Z,75.20
2017-08-20T21:12:52.432Z,75.10
2017-08-20T21:15:21.523Z,75.80
2017-08-20T21:17:49.016Z,75.70
2017-08-20T21:20:16.523Z,76.00
2017-08-20T21:22:43.979Z,75.70
2017-08-20T21:25:11.434Z,76.50
2017-08-20T21:27:38.906Z,76.50
2017-08-20T21:30:07.139Z,76.70
2017-08-20T21:32:34.594Z,76.70
2017-08-20T21:35:02.068Z,76.20
2017-08-20T21:37:29.576Z,76.40
2017-08-20T21:39:57.094Z,76.30
2017-08-20T21:42:24.572Z,76.40
2017-08-20T21:44:52.827Z,76.60
2017-08-20T21:47:20.387Z,76.60
2017-08-20T21:49:47.869Z,76.90
2017-08-20T21:52:16.125Z,77.00
2017-08-20T21:54:43.588Z,76.90
2017-08-20T21:57:11.864Z,77.20
2017-08-20T21:59:40.093Z,76.90
2017-08-20T22:02:07.547Z,76.90
2017-08-20T22:04:35.015Z,76.70
2017-08-20T22:07:02.484Z,76.80
2017-08-20T22:09:29.940Z,76.90
2017-08-20T22:11:57.412Z,76.90
2017-08-20T22:14:24.869Z,77.40
2017-08-20T22:16:52.339Z,77.80
2017-08-20T22:19:20.575Z,77.80
2017-08-20T22:21:48.061Z,77.60
2017-08-20T22:24:15.509Z,77.70
2017-08-20T22:26:43.068Z,77.70
2017-08-20T22:29:10.526Z,77.60
2017-08-20T22:31:37.984Z,77.70
2017-08-20T22:34:05.452Z,78.10
2017-08-20T22:36:33.717Z,78.20
2017-08-20T22:39:01.783Z,78.10
2017-08-20T22:41:29.348Z,78.10
2017-08-20T22:43:56.912Z,78.00
2017-08-20T22:46:24.369Z,78.20
2017-08-20T22:48:52.600Z,78.20
2017-08-20T22:51:20.091Z,78.20
2017-08-20T22:53:47.547Z,78.00
2017-08-20T22:56:15.115Z,78.20
2017-08-20T22:58:42.564Z,78.30
2017-08-20T23:01:10.019Z,78.40
2017-08-20T23:03:37.483Z,78.40
2017-08-20T23:06:05.809Z,78.80
2017-08-20T23:08:33.306Z,78.70
2017-08-20T23:11:01.331Z,78.90
2017-08-20T23:13:28.785Z,79.30
2017-08-20T23:15:56.299Z,79.30
2017-08-20T23:18:24.541Z,80.00
2017-08-20T23:20:52.027Z,80.60
2017-08-20T23:23:20.132Z,81.00
2017-08-20T23:25:47.664Z,81.00
2017-08-20T23:28:15.940Z,82.60
2017-08-20T23:30:44.167Z,81.80
2017-08-20T23:33:11.644Z,82.40
2017-08-20T23:35:39.130Z,82.70
2017-08-20T23:38:06.615Z,82.50
2017-08-20T23:40:34.102Z,81.80
2017-08-20T23:43:01.588Z,82.60
2017-08-20T23:45:29.042Z,82.20
2017-08-20T23:47:56.512Z,81.80
2017-08-20T23:50:24.739Z,82.60
2017-08-20T23:52:52.221Z,82.60
2017-08-20T23:55:19.690Z,82.60
2017-08-20T23:57:47.165Z,82.60
